Time;durP1;ratioP1;P1;durP2;ratioP2;P2;SDS_P1;SDS_P2;PMS_P1;PMS_P2;Temp;Humidity;BMP_temperature;BMP_pressure;BME280_temperature;BME280_humidity;BME280_pressure;Samples;Min_cycle;Max_cycle;Signal;HPM_P1;HPM_P2
2022/08/28 06:53:44;;;;;;;12.70;4.00;;;18.70;99.90;;;-144.05;52.30;125687.94;4989221;28;20078;-88
2022/08/28 06:56:23;;;;;;;12.48;3.83;;;18.80;99.90;;;-144.05;51.44;125687.94;4976060;28;20047;-92
2022/08/28 08:08:44;;;;;;;7.10;3.03;;;18.40;99.90;;;-144.05;51.50;125687.94;4984989;28;20047;-88
2022/08/28 08:11:17;;;;;;;10.50;2.60;;;18.30;99.90;;;-144.05;52.26;125687.94;4988808;28;20030;-87
2022/08/28 08:13:49;;;;;;;7.03;2.60;;;18.10;99.90;;;-144.05;52.32;125687.94;4979766;28;20411;-88
2022/08/28 08:16:24;;;;;;;12.00;3.22;;;18.10;99.90;;;-144.05;51.11;125687.94;4985603;28;20027;-86
2022/08/28 08:18:51;;;;;;;7.60;2.25;;;18.40;99.90;;;-144.05;49.90;125687.94;4978771;28;20034;-87
2022/08/28 08:21:21;;;;;;;5.38;2.38;;;19.30;99.90;;;-144.05;46.58;125687.94;4980193;28;20117;-86
2022/08/28 08:23:48;;;;;;;9.63;2.63;;;20.10;99.90;;;-144.05;44.80;125687.94;4984649;28;20042;-88
2022/08/28 08:26:21;;;;;;;6.22;1.95;;;20.70;99.90;;;-144.05;43.94;125687.94;4980097;28;20077;-89
2022/08/28 08:28:50;;;;;;;7.43;2.00;;;21.50;99.90;;;-144.05;42.44;125687.94;4997212;28;20442;-84
2022/08/28 08:31:28;;;;;;;5.82;2.10;;;21.90;99.90;;;-144.05;42.33;125687.94;4987010;28;20030;-85
2022/08/28 08:34:02;;;;;;;10.40;2.30;;;22.00;99.90;;;-144.05;41.10;125687.94;4987490;28;20057;-88
2022/08/28 08:36:36;;;;;;;6.30;2.08;;;22.10;99.90;;;-144.05;40.74;125687.94;4988295;28;20034;-86
2022/08/28 09:43:46;;;;;;;6.18;2.30;;;21.20;99.90;;;-144.05;42.26;125687.94;4979725;28;20047;-90
2022/08/28 09:46:31;;;;;;;8.85;2.50;;;20.90;99.90;;;-144.05;42.27;125687.94;4983797;28;20026;-90
2022/08/28 09:49:14;;;;;;;7.22;2.88;;;20.70;99.90;;;-144.05;43.03;125687.94;4985577;28;20034;-88
2022/08/28 09:51:41;;;;;;;5.72;2.42;;;20.50;99.90;;;-144.05;42.88;125687.94;4981674;28;20035;-88
2022/08/28 09:54:38;;;;;;;4.85;2.30;;;20.50;99.90;;;-144.05;41.20;125687.94;4978703;28;20049;-90
2022/08/28 09:57:04;;;;;;;6.60;2.17;;;21.10;99.90;;;-144.05;39.82;125687.94;4985588;28;20090;-91
2022/08/28 09:59:30;;;;;;;7.00;2.30;;;22.00;99.90;;;-144.05;39.21;125687.94;4983746;28;20360;-86
2022/08/28 10:02:25;;;;;;;6.75;2.35;;;22.50;99.90;;;-144.05;36.95;125687.94;4983522;28;20582;-88
2022/08/28 10:05:11;;;;;;;4.85;1.77;;;23.00;99.90;;;-144.05;36.21;125687.94;4983683;28;20109;-90
2022/08/28 10:08:02;;;;;;;6.43;2.15;;;23.60;99.90;;;-144.05;36.42;125687.94;4985897;28;20050;-89
2022/08/28 10:10:52;;;;;;;9.32;2.53;;;24.00;99.90;;;-144.05;35.17;125687.94;4980964;28;20410;-89
2022/08/28 10:13:33;;;;;;;10.43;2.63;;;24.50;99.90;;;-144.05;35.42;125687.94;4980744;28;20050;-87
2022/08/28 10:16:24;;;;;;;6.88;2.67;;;24.50;98.40;;;-144.05;35.26;125687.94;4983046;28;20031;-91
2022/08/28 10:19:54;;;;;;;8.45;2.80;;;24.60;98.10;;;-144.05;34.69;125687.94;4980307;28;20037;-86
2022/08/28 10:22:58;;;;;;;6.60;2.38;;;24.70;96.80;;;-144.05;34.34;125687.94;4976862;28;20042;-87
2022/08/28 10:25:50;;;;;;;7.65;2.42;;;25.00;96.90;;;-144.05;33.60;125687.94;4980583;28;20031;-89
2022/08/28 10:28:54;;;;;;;5.32;2.00;;;25.20;94.80;;;-144.05;33.41;125687.94;4991663;28;20023;-91
2022/08/28 10:32:09;;;;;;;6.78;2.20;;;25.00;94.10;;;-144.05;33.57;125687.94;4990697;28;20479;-90
2022/08/28 10:35:01;;;;;;;7.57;2.53;;;25.00;94.10;;;-144.05;33.77;125687.94;4981617;28;20101;-89
2022/08/28 10:38:23;;;;;;;8.90;2.65;;;25.20;94.60;;;-144.05;33.35;125687.94;4982248;28;20094;-91
2022/08/28 10:41:55;;;;;;;6.53;2.20;;;25.20;92.80;;;-144.05;34.24;125687.94;4946677;29;20046;-91
2022/08/28 10:44:57;;;;;;;6.40;1.98;;;24.90;92.90;;;-144.05;33.44;125687.94;4977008;28;20459;-92
2022/08/28 10:47:28;;;;;;;7.55;2.08;;;24.80;92.20;;;-144.05;34.09;125687.94;4999262;28;20061;-89
2022/08/28 10:50:14;;;;;;;5.03;1.90;;;24.90;93.50;;;-144.05;33.86;125687.94;4984084;28;20400;-92
2022/08/28 10:53:07;;;;;;;7.85;2.13;;;25.30;93.70;;;-144.05;33.06;125687.94;4985207;28;20098;-93
2022/08/28 10:55:58;;;;;;;6.03;2.08;;;25.30;92.10;;;-144.05;33.16;125687.94;5000369;28;20030;-87
2022/08/28 10:58:27;;;;;;;4.13;1.70;;;25.30;92.30;;;-144.05;32.84;125687.94;4983173;28;20121;-89
2022/08/28 11:01:05;;;;;;;7.05;1.95;;;25.60;92.10;;;-144.05;32.64;125687.94;4982223;28;20023;-90
2022/08/28 11:03:49;;;;;;;6.00;1.77;;;25.80;91.00;;;-144.05;32.55;125687.94;4982448;28;20121;-89
2022/08/28 11:06:49;;;;;;;5.10;2.13;;;25.70;90.70;;;-144.05;31.72;125687.94;4985649;28;20023;-89
2022/08/28 11:09:41;;;;;;;5.38;1.63;;;25.60;89.60;;;-144.05;31.50;125687.94;4981809;28;20085;-91
2022/08/28 11:12:34;;;;;;;7.40;2.25;;;25.70;87.30;;;-144.05;31.99;125687.94;4978538;28;20042;-90
2022/08/28 11:15:51;;;;;;;4.50;1.95;;;25.60;88.80;;;-144.05;31.61;125687.94;4981359;28;20106;-89
2022/08/28 11:19:23;;;;;;;6.72;1.90;;;25.30;84.60;;;-144.05;32.36;125687.94;4997112;28;20023;-88
2022/08/28 11:21:51;;;;;;;5.00;1.90;;;25.30;87.40;;;-144.05;31.84;125687.94;4987471;28;20061;-88
2022/08/28 11:24:27;;;;;;;7.13;1.95;;;25.40;86.80;;;-144.05;31.90;125687.94;4983173;28;20125;-89
2022/08/28 11:27:20;;;;;;;3.00;1.35;;;25.50;88.10;;;-144.05;31.58;125687.94;4981749;28;20058;-89
2022/08/28 11:30:13;;;;;;;5.72;1.85;;;25.50;85.50;;;-144.05;32.61;125687.94;4999913;28;20118;-89
2022/08/28 11:32:51;;;;;;;5.93;1.98;;;25.30;88.00;;;-144.05;32.36;125687.94;5001536;28;20046;-89
2022/08/28 11:35:29;;;;;;;4.93;1.83;;;25.20;87.30;;;-144.05;32.45;125687.94;4986034;28;20034;-87
2022/08/28 11:37:57;;;;;;;7.10;1.95;;;25.30;87.50;;;-144.05;32.52;125687.94;4997331;28;20034;-88
2022/08/28 11:40:29;;;;;;;3.08;1.67;;;25.10;87.50;;;-144.05;32.50;125687.94;5001002;28;20030;-87
2022/08/28 11:43:19;;;;;;;8.35;2.10;;;25.20;87.40;;;-144.05;33.02;125687.94;5005226;28;20043;-89
2022/08/28 11:45:45;;;;;;;7.20;1.88;;;25.20;88.70;;;-144.05;31.86;125687.94;4999008;28;20038;-89
2022/08/28 11:48:34;;;;;;;5.25;1.58;;;25.60;85.80;;;-144.05;31.69;125687.94;4985164;28;20027;-89
2022/08/28 11:51:38;;;;;;;3.70;1.48;;;25.90;85.40;;;-144.05;31.56;125687.94;4998922;28;20038;-89
2022/08/28 11:54:49;;;;;;;4.60;1.90;;;25.60;83.10;;;-144.05;31.54;125687.94;4997513;28;20025;-87
2022/08/28 11:57:44;;;;;;;7.18;2.10;;;25.70;83.80;;;-144.05;31.81;125687.94;4998600;28;20062;-90
2022/08/28 12:00:33;;;;;;;5.72;1.80;;;26.10;84.00;;;-144.05;31.28;125687.94;4982885;28;20026;-88
2022/08/28 12:03:12;;;;;;;5.43;1.67;;;25.70;81.70;;;-144.05;32.15;125687.94;4980089;28;20136;-87
2022/08/28 12:05:52;;;;;;;6.22;1.85;;;25.20;83.40;;;-144.05;32.29;125687.94;4982518;28;20089;-88
2022/08/28 12:09:02;;;;;;;5.00;1.83;;;25.20;84.60;;;-144.05;31.34;125687.94;4997833;28;20128;-88
2022/08/28 12:11:40;;;;;;;5.38;1.80;;;25.60;85.00;;;-144.05;31.24;125687.94;5011242;28;20033;-88
2022/08/28 12:14:27;;;;;;;6.47;1.60;;;25.70;81.70;;;-144.05;31.66;125687.94;5014750;28;20042;-90
2022/08/28 12:17:04;;;;;;;9.73;2.00;;;25.50;82.40;;;-144.05;32.42;125687.94;4950940;28;20042;-88
2022/08/28 12:19:50;;;;;;;5.72;1.73;;;25.30;83.30;;;-144.05;31.68;125687.94;5002442;28;20061;-88
2022/08/28 12:22:22;;;;;;;3.88;1.67;;;25.50;82.70;;;-144.05;31.50;125687.94;4987273;28;20045;-90
2022/08/28 12:25:13;;;;;;;5.95;1.65;;;25.60;81.60;;;-144.05;31.40;125687.94;4980785;28;20039;-92
2022/08/28 12:27:40;;;;;;;3.15;1.40;;;25.20;80.30;;;-144.05;32.61;125687.94;4980650;28;20026;-90
2022/08/28 12:30:07;;;;;;;5.40;1.95;;;24.50;82.70;;;-144.05;32.90;125687.94;4997742;28;20122;-89
2022/08/28 12:33:06;;;;;;;5.78;1.48;;;24.80;85.20;;;-144.05;31.91;125687.94;4980512;28;20364;-87
2022/08/28 12:35:33;;;;;;;7.60;1.98;;;25.20;82.30;;;-144.05;30.97;125687.94;4980669;28;20098;-91
2022/08/28 12:38:06;;;;;;;6.25;1.70;;;25.60;79.30;;;-144.05;31.67;125687.94;4982571;28;20031;-92
2022/08/28 12:40:49;;;;;;;4.10;1.52;;;25.60;81.70;;;-144.05;30.85;125687.94;4983065;28;20439;-90
2022/08/28 12:43:45;;;;;;;5.43;1.80;;;25.70;78.80;;;-144.05;30.82;125687.94;4982925;28;20035;-90
2022/08/28 12:46:27;;;;;;;2.78;1.63;;;25.60;78.70;;;-144.05;31.48;125687.94;4993760;28;20094;-95
2022/08/28 12:49:02;;;;;;;4.97;1.52;;;25.50;79.90;;;-144.05;30.72;125687.94;4983159;28;20506;-89
2022/08/28 12:51:37;;;;;;;8.52;1.67;;;25.60;77.70;;;-144.05;30.75;125687.94;4988327;28;20034;-89
2022/08/28 12:54:07;;;;;;;6.35;1.80;;;25.50;78.40;;;-144.05;31.22;125687.94;4996632;28;20101;-87
2022/08/28 12:56:37;;;;;;;5.55;1.60;;;25.50;79.90;;;-144.05;31.05;125687.94;4996604;28;20023;-87
2022/08/28 12:59:44;;;;;;;5.38;1.60;;;25.60;78.80;;;-144.05;30.96;125687.94;4995893;28;20041;-86
2022/08/28 13:02:47;;;;;;;4.82;1.80;;;25.80;79.00;;;-144.05;31.33;125687.94;5003330;28;20031;-92
2022/08/28 13:05:34;;;;;;;4.88;1.40;;;25.90;78.90;;;-144.05;30.42;125687.94;4943603;29;20046;-90
2022/08/28 13:08:12;;;;;;;3.65;1.75;;;25.80;76.30;;;-144.05;30.53;125687.94;4980488;28;20066;-91
2022/08/28 13:10:48;;;;;;;3.85;1.45;;;25.90;76.40;;;-144.05;30.92;125687.94;4998562;28;20031;-92
2022/08/28 13:13:34;;;;;;;5.88;2.33;;;26.20;78.80;;;-144.05;30.26;125687.94;4979533;28;20031;-91
2022/08/28 13:16:08;;;;;;;5.70;1.77;;;25.90;76.00;;;-144.05;30.58;125687.94;4994803;28;20483;-89
2022/08/28 13:19:42;;;;;;;3.08;1.35;;;25.60;75.50;;;-144.05;31.39;125687.94;4994902;28;20035;-92
2022/08/28 13:22:40;;;;;;;3.80;1.55;;;25.30;76.40;;;-144.05;31.03;125687.94;4995020;28;20384;-88
2022/08/28 13:25:08;;;;;;;6.70;1.92;;;25.30;76.70;;;-144.05;30.54;125687.94;4980732;28;20030;-90
2022/08/28 13:27:35;;;;;;;3.15;1.67;;;25.60;75.60;;;-144.05;30.54;125687.94;4980488;28;20085;-91
2022/08/28 13:30:27;;;;;;;4.45;1.63;;;25.70;75.30;;;-144.05;30.10;125687.94;4995948;28;20114;-89
2022/08/28 13:33:34;;;;;;;4.90;1.60;;;25.80;74.80;;;-144.05;30.35;125687.94;4999489;28;20033;-89
2022/08/28 13:36:23;;;;;;;4.57;1.80;;;25.70;75.20;;;-144.05;30.19;125687.94;4982447;28;20058;-91
2022/08/28 13:38:49;;;;;;;2.22;1.38;;;25.50;74.60;;;-144.05;30.19;125687.94;4982716;28;20039;-89
2022/08/28 13:41:15;;;;;;;5.72;1.45;;;25.50;74.30;;;-144.05;30.70;125687.94;4999103;28;20096;-90
2022/08/28 13:43:46;;;;;;;4.70;1.50;;;25.40;74.90;;;-144.05;30.83;125687.94;5000422;28;20118;-88
2022/08/28 13:46:16;;;;;;;6.68;1.63;;;25.30;75.40;;;-144.05;30.76;125687.94;5000043;28;20031;-89
2022/08/28 13:48:45;;;;;;;3.63;1.38;;;25.10;75.50;;;-144.05;31.11;125687.94;4999472;28;20467;-90
2022/08/28 13:51:13;;;;;;;4.13;1.42;;;24.80;75.70;;;-144.05;31.76;125687.94;4999953;28;20035;-90
2022/08/28 13:53:40;;;;;;;4.53;1.23;;;24.30;77.20;;;-144.05;32.06;125687.94;4981469;28;20050;-88
2022/08/28 13:56:06;;;;;;;5.53;1.63;;;23.80;77.50;;;-144.05;32.71;125687.94;4982858;28;20050;-89
2022/08/28 13:58:32;;;;;;;7.90;1.75;;;23.40;79.00;;;-144.05;32.59;125687.94;4999278;28;20114;-91
2022/08/28 14:00:59;;;;;;;5.82;1.50;;;23.40;80.00;;;-144.05;33.20;125687.94;4981103;28;20094;-87
2022/08/28 14:03:34;;;;;;;4.35;1.42;;;23.60;81.30;;;-144.05;32.46;125687.94;4997257;28;20038;-86
2022/08/28 14:06:13;;;;;;;4.57;1.38;;;23.50;79.50;;;-144.05;32.81;125687.94;4980463;28;20038;-86
2022/08/28 14:08:42;;;;;;;3.50;1.15;;;23.40;79.60;;;-144.05;32.83;125687.94;4979611;28;20106;-86
2022/08/28 14:11:14;;;;;;;4.18;1.33;;;23.40;80.30;;;-144.05;33.01;125687.94;5004611;28;20090;-85
2022/08/28 14:13:43;;;;;;;3.88;1.27;;;23.50;81.10;;;-144.05;32.55;125687.94;4995910;28;20043;-90
2022/08/28 14:16:11;;;;;;;4.75;1.50;;;23.50;79.40;;;-144.05;32.43;125687.94;4977890;28;20027;-90
2022/08/28 14:18:37;;;;;;;3.15;1.52;;;23.60;78.80;;;-144.05;32.66;125687.94;4978319;28;20027;-90
2022/08/28 14:21:05;;;;;;;6.13;1.60;;;23.60;79.90;;;-144.05;32.66;125687.94;4963252;28;20376;-89
2022/08/28 14:23:32;;;;;;;4.45;1.50;;;23.60;79.50;;;-144.05;32.27;125687.94;4977679;28;20038;-87
2022/08/28 14:25:58;;;;;;;3.78;1.55;;;23.40;78.70;;;-144.05;32.69;125687.94;4962233;29;20039;-90
2022/08/28 14:28:24;;;;;;;4.68;1.27;;;23.30;79.30;;;-144.05;32.89;125687.94;4978159;28;20027;-90
2022/08/28 14:30:51;;;;;;;4.80;1.60;;;23.30;80.20;;;-144.05;33.01;125687.94;4979300;28;20031;-89
2022/08/28 14:33:18;;;;;;;5.95;1.65;;;23.30;80.10;;;-144.05;32.98;125687.94;4965508;28;20375;-89
2022/08/28 14:35:46;;;;;;;5.85;1.60;;;23.30;80.50;;;-144.05;33.34;125687.94;4953193;29;20110;-91
2022/08/28 14:38:12;;;;;;;4.78;1.48;;;23.30;80.70;;;-144.05;33.23;125687.94;4989071;28;20523;-88
2022/08/28 14:40:42;;;;;;;4.28;1.55;;;23.30;80.80;;;-144.05;33.09;125687.94;4975857;28;20094;-89
2022/08/28 14:43:12;;;;;;;4.65;1.25;;;23.10;80.30;;;-144.05;33.64;125687.94;4951483;29;20046;-89
2022/08/28 14:45:56;;;;;;;6.15;1.38;;;23.20;81.90;;;-144.05;32.68;125687.94;4978204;28;20066;-89
2022/08/28 14:48:22;;;;;;;4.15;1.25;;;23.20;79.40;;;-144.05;33.37;125687.94;4978646;28;20033;-86
2022/08/28 14:50:48;;;;;;;3.17;1.35;;;23.10;81.00;;;-144.05;33.70;125687.94;4961747;29;20102;-87
2022/08/28 14:53:16;;;;;;;4.10;1.25;;;23.00;81.60;;;-144.05;34.01;125687.94;4979034;28;20027;-88
2022/08/28 14:55:49;;;;;;;2.90;1.00;;;22.90;83.60;;;-144.05;33.67;125687.94;4979392;28;20395;-89
2022/08/28 14:58:18;;;;;;;3.65;1.50;;;22.80;81.70;;;-144.05;33.68;125687.94;4962641;29;20058;-90
2022/08/28 15:00:50;;;;;;;2.90;1.08;;;22.90;82.60;;;-144.05;33.65;125687.94;4977903;28;20027;-86
2022/08/28 15:03:18;;;;;;;5.60;1.30;;;22.90;82.10;;;-144.05;33.52;125687.94;4962146;28;20062;-89
2022/08/28 15:05:45;;;;;;;5.38;1.10;;;22.80;81.70;;;-144.05;33.97;125687.94;4962563;29;20035;-90
2022/08/28 15:08:16;;;;;;;4.70;1.17;;;22.80;82.50;;;-144.05;33.63;125687.94;4979230;28;20027;-90
2022/08/28 15:10:53;;;;;;;5.13;1.20;;;22.80;81.50;;;-144.05;33.57;125687.94;4979550;28;20027;-89
2022/08/28 15:13:27;;;;;;;4.68;1.70;;;22.70;81.70;;;-144.05;33.72;125687.94;4966018;28;20119;-90
2022/08/28 15:16:14;;;;;;;4.30;1.40;;;22.70;82.00;;;-144.05;33.72;125687.94;4984720;28;20065;-88
2022/08/28 15:18:49;;;;;;;3.13;1.48;;;22.70;82.60;;;-144.05;33.65;125687.94;4979875;28;20046;-89
2022/08/28 15:21:27;;;;;;;3.45;1.40;;;22.70;82.20;;;-144.05;34.06;125687.94;4964166;29;20027;-89
2022/08/28 15:24:02;;;;;;;5.90;1.60;;;22.60;82.50;;;-144.05;34.04;125687.94;4980170;28;20557;-91
2022/08/28 15:26:30;;;;;;;3.90;1.30;;;22.50;82.60;;;-144.05;34.32;125687.94;4965407;28;20039;-90
2022/08/28 15:29:06;;;;;;;2.42;1.27;;;22.40;83.70;;;-144.05;33.96;125687.94;4965741;28;20099;-89
2022/08/28 15:32:08;;;;;;;5.05;1.35;;;22.30;82.50;;;-144.05;34.38;125687.94;4963966;29;20070;-91
2022/08/28 15:34:34;;;;;;;3.53;1.33;;;22.20;83.60;;;-144.05;34.57;125687.94;4964122;28;20051;-90
2022/08/28 15:37:06;;;;;;;3.95;1.30;;;22.10;84.30;;;-144.05;34.67;125687.94;4984494;28;20031;-90
2022/08/28 15:42:17;;;;;;;3.60;1.20;;;22.20;84.20;;;-144.05;34.22;125687.94;4969042;28;20053;-89
2022/08/28 15:44:43;;;;;;;7.03;1.65;;;22.20;83.40;;;-144.05;34.03;125687.94;4981220;28;20381;-90
2022/08/28 15:47:11;;;;;;;4.13;1.38;;;22.20;82.90;;;-144.05;34.29;125687.94;4982644;28;20038;-89
2022/08/28 15:49:46;;;;;;;2.78;1.23;;;22.20;83.30;;;-144.05;33.96;125687.94;4980915;28;20031;-89
2022/08/28 15:52:12;;;;;;;3.30;1.15;;;22.20;82.80;;;-144.05;34.22;125687.94;4969437;28;20138;-91
2022/08/28 15:54:38;;;;;;;2.80;1.25;;;22.10;83.40;;;-144.05;34.06;125687.94;4978287;28;20069;-88
2022/08/28 15:57:04;;;;;;;4.13;1.40;;;22.20;82.40;;;-144.05;34.01;125687.94;4984377;28;20037;-91
2022/08/28 15:59:30;;;;;;;5.15;1.48;;;22.20;82.50;;;-144.05;33.79;125687.94;4981541;28;20469;-89
2022/08/28 16:01:56;;;;;;;4.28;1.63;;;22.10;81.60;;;-144.05;33.88;125687.94;4971831;28;20043;-89
2022/08/28 16:04:25;;;;;;;4.07;1.33;;;22.00;82.30;;;-144.05;34.08;125687.94;4979332;28;20034;-88
2022/08/28 16:06:51;;;;;;;5.60;1.70;;;22.00;83.60;;;-144.05;34.27;125687.94;4963520;28;20031;-91
2022/08/28 16:09:48;;;;;;;;;;;;;;;;;;;;;
2022/08/28 16:12:32;;;;;;;4.95;1.38;;;22.00;84.00;;;-144.05;34.39;125687.94;4947643;29;20087;-86
2022/08/28 16:15:01;;;;;;;6.13;1.63;;;22.00;83.80;;;-144.05;34.34;125687.94;4949842;29;20045;-90
2022/08/28 16:17:51;;;;;;;5.32;1.70;;;22.00;83.80;;;-144.05;34.62;125687.94;4951428;29;20039;-89
2022/08/28 16:20:19;;;;;;;5.53;1.85;;;22.00;84.40;;;-144.05;34.43;125687.94;4965939;29;20083;-89
2022/08/28 16:22:55;;;;;;;5.35;1.70;;;21.90;84.40;;;-144.05;34.45;125687.94;4968432;28;20043;-88
2022/08/28 16:25:22;;;;;;;4.43;1.77;;;21.90;83.70;;;-144.05;34.69;125687.94;4952622;28;20062;-89
2022/08/28 16:27:49;;;;;;;5.40;1.38;;;21.80;84.50;;;-144.05;34.73;125687.94;4958858;28;20097;-88
2022/08/28 16:34:03;;;;;;;5.88;1.40;;;21.60;84.80;;;-144.05;34.41;125687.94;4942720;29;20035;-92
2022/08/28 16:37:03;;;;;;;6.43;2.08;;;21.60;83.80;;;-144.05;34.43;125687.94;4933228;29;20106;-88
2022/08/28 16:40:20;;;;;;;4.75;1.70;;;21.50;84.10;;;-144.05;34.46;125687.94;4945261;29;20036;-91
2022/08/28 16:43:20;;;;;;;4.72;1.75;;;21.40;83.90;;;-144.05;34.82;125687.94;4942721;29;20053;-90
2022/08/28 16:46:46;;;;;;;2.65;1.42;;;21.30;84.60;;;-144.05;34.85;125687.94;4928872;29;20044;-90
2022/08/28 16:49:37;;;;;;;4.95;1.42;;;21.30;84.60;;;-144.05;34.64;125687.94;4932158;29;20047;-93
2022/08/28 16:52:37;;;;;;;6.88;1.80;;;21.20;84.40;;;-144.05;34.93;125687.94;4932515;29;20040;-90
2022/08/28 16:56:08;;;;;;;4.60;1.65;;;21.20;85.00;;;-144.05;34.76;125687.94;4900906;29;20052;-90
2022/08/28 17:03:20;;;;;;;2.25;1.17;;;21.10;85.30;;;-144.05;34.90;125687.94;4898339;28;20563;-89
2022/08/28 17:06:27;;;;;;;5.90;1.77;;;21.10;84.90;;;-144.05;35.15;125687.94;4935259;29;20047;-91
2022/08/28 17:09:43;;;;;;;;;;;;;;;;;;;;;
2022/08/28 17:17:41;;;;;;;4.10;1.58;;;20.80;86.90;;;-144.05;35.99;125687.94;4948348;28;20055;-90
2022/08/28 17:26:28;;;;;;;4.93;1.98;;;20.60;87.60;;;-144.05;36.33;125687.94;4928091;29;20224;-91
2022/08/28 17:30:16;;;;;;;3.72;1.60;;;20.60;89.40;;;-144.05;36.21;125687.94;4920554;29;20036;-90
2022/08/28 17:32:39;;;;;;;3.90;1.55;;;20.50;88.80;;;-144.05;35.87;125687.94;4927225;29;20047;-90
2022/08/28 17:35:48;;;;;;;4.60;1.90;;;20.50;88.00;;;-144.05;36.25;125687.94;4939188;29;20040;-90
2022/08/28 17:39:56;;;;;;;;;;;;;;;;;;;;;
2022/08/28 17:42:52;;;;;;;5.10;1.63;;;20.30;89.20;;;-144.05;36.09;125687.94;4882837;29;20040;-89
2022/08/28 17:45:47;;;;;;;5.82;1.45;;;20.20;88.70;;;-144.05;36.38;125687.94;4933346;29;20048;-90
2022/08/28 17:49:22;;;;;;;5.05;1.60;;;20.20;89.20;;;-144.05;36.80;125687.94;4952369;29;20043;-88
2022/08/28 17:52:34;;;;;;;7.07;1.50;;;20.10;90.10;;;-144.05;36.92;125687.94;4945138;28;20052;-90
2022/08/28 17:55:19;;;;;;;7.18;1.70;;;20.00;90.20;;;-144.05;36.93;125687.94;4962339;28;20059;-90
2022/08/28 17:57:56;;;;;;;4.70;1.63;;;20.00;90.30;;;-144.05;36.87;125687.94;4947976;28;20048;-92
2022/08/28 18:00:47;;;;;;;;;;;;;;;;;;;;;
2022/08/28 18:03:22;;;;;;;4.90;1.80;;;19.80;90.40;;;-144.05;37.19;125687.94;4947220;29;20066;-89
2022/08/28 18:05:48;;;;;;;5.22;1.60;;;19.80;90.80;;;-144.05;37.73;125687.94;4949674;28;20032;-92
2022/08/28 18:08:17;;;;;;;6.93;2.10;;;19.70;91.20;;;-144.05;37.50;125687.94;4959521;29;20439;-86
2022/08/28 18:10:43;;;;;;;4.07;1.77;;;19.50;91.10;;;-144.05;37.65;125687.94;4943124;29;20051;-88
2022/08/28 18:13:09;;;;;;;5.47;1.75;;;19.50;91.40;;;-144.05;37.90;125687.94;4961319;29;20377;-85
2022/08/28 18:15:35;;;;;;;8.68;1.80;;;19.40;91.70;;;-144.05;38.18;125687.94;4978642;28;20126;-90
2022/08/28 18:20:32;;;;;;;5.85;1.52;;;19.20;92.10;;;-144.05;38.41;125687.94;4965273;29;20460;-88
2022/08/28 18:22:58;;;;;;;4.13;1.77;;;19.20;92.50;;;-144.05;38.58;125687.94;4966937;29;20054;-87
2022/08/28 18:25:47;;;;;;;8.80;2.50;;;19.20;92.70;;;-144.05;38.46;125687.94;4981914;28;20045;-87
2022/08/28 18:28:28;;;;;;;4.72;1.88;;;19.10;92.60;;;-144.05;38.72;125687.94;4969066;28;20039;-90
2022/08/28 18:30:54;;;;;;;7.97;1.88;;;19.10;93.00;;;-144.05;38.84;125687.94;4968232;29;20123;-90
2022/08/28 18:33:23;;;;;;;6.35;1.50;;;19.00;93.40;;;-144.05;39.28;125687.94;4962494;29;20047;-89
2022/08/28 18:35:51;;;;;;;4.13;1.70;;;18.90;93.80;;;-144.05;39.40;125687.94;4962373;29;20031;-88
2022/08/28 18:38:20;;;;;;;4.70;1.75;;;18.80;94.20;;;-144.05;39.46;125687.94;4962059;29;20364;-88
2022/08/28 18:40:48;;;;;;;5.45;1.80;;;18.70;94.50;;;-144.05;39.94;125687.94;4965184;28;20039;-89
2022/08/28 18:43:19;;;;;;;8.43;2.15;;;18.60;95.00;;;-144.05;40.27;125687.94;4967721;29;20059;-89
2022/08/28 18:46:43;;;;;;;4.03;1.92;;;18.50;95.50;;;-144.05;40.31;125687.94;4972013;28;20047;-91
2022/08/28 19:15:09;;;;;;;4.45;2.08;;;18.10;98.40;;;-144.05;40.62;125687.94;4943840;29;20070;-87
2022/08/28 19:17:40;;;;;;;4.65;1.77;;;18.10;98.70;;;-144.05;40.86;125687.94;4954310;29;20035;-87
2022/08/28 19:20:17;;;;;;;3.33;1.52;;;18.00;99.00;;;-144.05;41.21;125687.94;4927966;29;20091;-90
2022/08/28 19:22:43;;;;;;;5.95;2.22;;;17.90;99.60;;;-144.05;41.50;125687.94;4925514;29;20115;-91
2022/08/28 19:25:29;;;;;;;4.03;2.15;;;17.70;99.90;;;-144.05;41.93;125687.94;4925598;29;20485;-90
2022/08/28 19:28:01;;;;;;;4.65;2.10;;;17.60;99.90;;;-144.05;42.20;125687.94;4924805;29;20056;-91
2022/08/28 19:30:32;;;;;;;6.15;2.28;;;17.50;99.90;;;-144.05;42.48;125687.94;4927514;29;20036;-92
2022/08/28 19:33:01;;;;;;;8.18;2.88;;;17.40;99.90;;;-144.05;42.81;125687.94;4945355;29;20127;-90
2022/08/28 19:35:33;;;;;;;6.05;2.47;;;17.30;99.90;;;-144.05;42.58;125687.94;4930519;29;20123;-89
2022/08/28 19:38:00;;;;;;;6.15;2.45;;;17.30;99.90;;;-144.05;42.79;125687.94;4937363;29;20070;-89
2022/08/28 19:40:26;;;;;;;5.13;2.55;;;17.30;99.90;;;-144.05;42.81;125687.94;4932106;29;20032;-89
2022/08/28 19:42:55;;;;;;;7.03;2.58;;;17.30;99.90;;;-144.05;42.96;125687.94;4948093;28;20235;-90
